createdAt,value
2018-08-18T00:01:15.277Z,98.50
2018-08-18T00:03:43.442Z,98.90
2018-08-18T00:06:11.725Z,98.90
2018-08-18T00:08:39.980Z,99.20
2018-08-18T00:11:08.207Z,99.30
2018-08-18T00:13:51.705Z,99.80
2018-08-18T00:16:25.812Z,99.60
2018-08-18T00:18:57.888Z,99.30
2018-08-18T00:21:28.755Z,99.50
2018-08-18T00:24:00.583Z,99.30
2018-08-18T00:26:29.759Z,99.10
2018-08-18T00:28:58.051Z,99.00
2018-08-18T00:31:26.299Z,99.30
2018-08-18T00:33:54.760Z,99.40
2018-08-18T00:36:23.108Z,99.70
2018-08-18T00:38:51.345Z,99.90
2018-08-18T00:41:19.657Z,99.90
2018-08-18T00:43:48.886Z,99.40
2018-08-18T00:46:17.070Z,98.80
2018-08-18T00:48:45.245Z,98.70
2018-08-18T00:51:15.036Z,98.90
2018-08-18T00:53:45.024Z,98.10
2018-08-18T00:56:13.683Z,98.10
2018-08-18T00:58:53.876Z,97.60
2018-08-18T01:01:22.433Z,98.30
2018-08-18T01:03:54.784Z,97.60
2018-08-18T01:06:27.393Z,97.50
2018-08-18T01:08:56.853Z,98.00
2018-08-18T01:11:25.256Z,98.00
2018-08-18T01:13:54.434Z,98.00
2018-08-18T01:16:22.575Z,98.00
2018-08-18T01:18:52.869Z,97.50
2018-08-18T01:21:21.474Z,97.90
2018-08-18T01:23:49.703Z,97.30
2018-08-18T01:26:17.993Z,96.90
2018-08-18T01:28:46.237Z,96.70
2018-08-18T01:31:25.044Z,96.90
2018-08-18T01:33:53.244Z,97.30
2018-08-18T01:36:21.407Z,97.90
2018-08-18T01:38:49.537Z,97.80
2018-08-18T01:41:24.588Z,97.60
2018-08-18T01:44:09.844Z,97.90
2018-08-18T01:46:38.529Z,97.70
2018-08-18T01:49:38.202Z,97.30
2018-08-18T01:52:13.636Z,97.70
2018-08-18T01:54:42.697Z,98.10
2018-08-18T01:57:11.788Z,98.30
2018-08-18T01:59:42.081Z,98.80
2018-08-18T02:02:11.571Z,99.60
2018-08-18T02:04:39.863Z,99.40
2018-08-18T02:07:22.904Z,99.80
2018-08-18T02:09:52.713Z,99.70
2018-08-18T02:12:20.987Z,99.80
2018-08-18T02:14:49.282Z,99.40
2018-08-18T02:17:25.089Z,97.70
2018-08-18T02:19:53.539Z,99.00
2018-08-18T02:22:22.410Z,98.90
2018-08-18T02:24:50.659Z,98.50
2018-08-18T02:27:18.896Z,98.70
2018-08-18T02:29:58.742Z,98.90
2018-08-18T02:32:30.541Z,99.20
2018-08-18T02:34:58.976Z,99.00
2018-08-18T02:37:28.046Z,99.00
2018-08-18T02:39:56.301Z,99.20
2018-08-18T02:42:24.760Z,99.50
2018-08-18T02:44:53.458Z,99.10
2018-08-18T02:47:22.597Z,98.90
2018-08-18T02:49:51.783Z,99.00
2018-08-18T02:52:23.501Z,98.90
2018-08-18T02:54:59.508Z,99.00
2018-08-18T02:57:29.045Z,99.10
2018-08-18T02:59:59.797Z,99.30
2018-08-18T03:02:27.984Z,99.40
2018-08-18T03:04:56.246Z,99.40
2018-08-18T03:07:24.829Z,99.00
2018-08-18T03:09:53.861Z,99.40
2018-08-18T03:12:23.722Z,99.90
2018-08-18T03:14:51.968Z,99.90
2018-08-18T03:17:20.147Z,99.90
2018-08-18T03:19:48.330Z,99.90
2018-08-18T03:22:16.523Z,99.90
2018-08-18T03:24:44.820Z,99.90
2018-08-18T03:27:13.004Z,99.20
2018-08-18T03:29:46.751Z,99.00
2018-08-18T03:32:14.959Z,98.90
2018-08-18T03:34:43.123Z,98.80
2018-08-18T03:37:25.436Z,98.90
2018-08-18T03:39:54.036Z,99.10
2018-08-18T03:42:23.311Z,99.70
2018-08-18T03:44:54.545Z,99.10
2018-08-18T03:47:22.780Z,98.80
2018-08-18T03:49:51.684Z,99.10
2018-08-18T03:52:19.966Z,99.40
2018-08-18T03:54:48.202Z,98.80
2018-08-18T03:57:16.352Z,98.60
2018-08-18T03:59:44.514Z,98.40
2018-08-18T04:02:12.717Z,98.70
2018-08-18T04:04:40.911Z,98.70
2018-08-18T04:07:09.523Z,99.60
2018-08-18T04:09:38.834Z,99.80
2018-08-18T04:12:09.491Z,99.90
2018-08-18T04:14:43.005Z,99.80
2018-08-18T04:17:22.843Z,99.90
2018-08-18T04:19:51.298Z,99.90
2018-08-18T04:22:19.756Z,99.90
2018-08-18T04:24:49.760Z,99.90
2018-08-18T04:27:35.176Z,99.10
2018-08-18T04:30:04.567Z,98.70
2018-08-18T04:32:39.482Z,98.60
2018-08-18T04:35:07.710Z,99.50
2018-08-18T04:37:35.868Z,98.70
2018-08-18T04:40:04.294Z,97.90
2018-08-18T04:42:32.429Z,98.20
2018-08-18T04:45:00.640Z,98.70
2018-08-18T04:47:30.085Z,99.10
2018-08-18T04:49:58.331Z,98.90
2018-08-18T04:52:26.622Z,98.60
2018-08-18T04:54:54.872Z,98.10
2018-08-18T04:57:23.066Z,98.70
2018-08-18T04:59:51.311Z,98.60
2018-08-18T05:02:19.538Z,98.70
2018-08-18T05:04:47.784Z,98.60
2018-08-18T05:07:16.045Z,98.60
2018-08-18T05:09:44.274Z,98.70
2018-08-18T05:12:12.492Z,98.60
2018-08-18T05:14:40.720Z,98.40
2018-08-18T05:17:09.619Z,98.20
2018-08-18T05:19:37.906Z,98.10
2018-08-18T05:22:06.148Z,98.10
2018-08-18T05:24:34.399Z,97.90
2018-08-18T05:27:08.145Z,97.90
2018-08-18T05:29:36.357Z,97.70
2018-08-18T05:32:08.448Z,97.30
2018-08-18T05:34:36.745Z,97.20
2018-08-18T05:37:05.056Z,97.30
2018-08-18T05:39:33.301Z,97.30
2018-08-18T05:42:01.984Z,97.30
2018-08-18T05:44:30.243Z,97.10
2018-08-18T05:46:58.432Z,97.30
2018-08-18T05:49:27.549Z,97.30
2018-08-18T05:51:55.688Z,96.90
2018-08-18T05:54:27.456Z,96.50
2018-08-18T05:56:55.704Z,96.60
2018-08-18T05:59:23.903Z,96.40
2018-08-18T06:01:52.096Z,96.60
2018-08-18T06:04:21.600Z,96.40
2018-08-18T06:06:50.486Z,96.20
2018-08-18T06:09:19.845Z,96.30
2018-08-18T06:11:47.964Z,96.40
2018-08-18T06:14:16.656Z,96.50
2018-08-18T06:16:45.243Z,96.00
2018-08-18T06:19:13.474Z,95.80
2018-08-18T06:21:41.593Z,95.70
2018-08-18T06:24:09.960Z,95.40
2018-08-18T06:26:38.111Z,95.80
2018-08-18T06:36:05.395Z,95.40
2018-08-18T06:38:33.600Z,95.10
2018-08-18T06:41:02.824Z,94.50
2018-08-18T06:43:32.158Z,94.50
2018-08-18T06:46:00.724Z,94.50
2018-08-18T06:48:31.117Z,94.90
2018-08-18T06:50:59.248Z,94.80
2018-08-18T06:53:28.630Z,95.30
2018-08-18T06:55:58.630Z,95.00
2018-08-18T06:58:26.774Z,93.80
2018-08-18T07:00:55.042Z,94.10
2018-08-18T07:03:40.275Z,94.00
2018-08-18T07:06:10.631Z,94.40
2018-08-18T07:08:44.336Z,94.10
2018-08-18T07:11:12.407Z,93.20
2018-08-18T07:13:41.328Z,93.30
2018-08-18T07:16:09.637Z,92.10
2018-08-18T07:18:37.847Z,92.70
2018-08-18T07:21:05.948Z,92.70
2018-08-18T07:23:34.135Z,92.60
2018-08-18T07:26:03.232Z,92.10
2018-08-18T07:28:31.346Z,92.40
2018-08-18T07:30:59.521Z,91.50
2018-08-18T07:33:27.684Z,91.10
2018-08-18T07:36:00.254Z,90.30
2018-08-18T07:38:28.520Z,90.30
2018-08-18T07:40:56.926Z,90.10
2018-08-18T07:43:29.773Z,89.30
2018-08-18T07:45:59.666Z,89.10
2018-08-18T07:48:28.023Z,88.90
2018-08-18T07:50:56.273Z,88.50
2018-08-18T07:53:24.487Z,88.90
2018-08-18T07:55:52.635Z,89.20
2018-08-18T07:58:22.234Z,88.60
2018-08-18T08:00:50.442Z,86.50
2018-08-18T08:03:19.268Z,85.00
2018-08-18T08:05:47.626Z,84.20
2018-08-18T08:08:15.910Z,84.20
2018-08-18T08:10:44.080Z,84.20
2018-08-18T08:13:13.485Z,83.30
2018-08-18T08:15:41.824Z,83.70
2018-08-18T08:18:11.939Z,84.90
2018-08-18T08:20:40.310Z,84.50
2018-08-18T08:23:08.623Z,82.90
2018-08-18T08:25:36.840Z,85.00
2018-08-18T08:28:05.067Z,83.80
2018-08-18T08:30:33.513Z,82.10
2018-08-18T08:33:01.864Z,81.80
2018-08-18T08:35:30.105Z,78.90
2018-08-18T08:37:58.354Z,80.80
2018-08-18T08:40:26.581Z,78.80
2018-08-18T08:42:54.741Z,79.10
2018-08-18T08:45:24.337Z,78.60
2018-08-18T08:47:52.493Z,77.90
2018-08-18T08:50:22.705Z,77.90
2018-08-18T08:52:54.009Z,77.80
2018-08-18T08:55:23.623Z,78.80
2018-08-18T08:57:51.763Z,77.60
2018-08-18T09:00:19.892Z,77.90
2018-08-18T09:02:48.118Z,78.70
2018-08-18T09:05:18.556Z,78.60
2018-08-18T09:07:46.704Z,77.70
2018-08-18T09:10:15.883Z,76.50
2018-08-18T09:12:44.123Z,74.50
2018-08-18T09:15:14.052Z,71.70
2018-08-18T09:17:42.326Z,72.80
2018-08-18T09:20:12.594Z,67.80
2018-08-18T09:22:52.889Z,62.60
2018-08-18T09:25:21.037Z,60.70
2018-08-18T09:28:02.171Z,56.40
2018-08-18T09:30:31.868Z,56.60
2018-08-18T09:33:02.795Z,58.80
2018-08-18T09:35:40.572Z,62.00
2018-08-18T09:38:08.706Z,64.70
2018-08-18T09:40:36.895Z,66.50
2018-08-18T09:43:09.319Z,66.50
2018-08-18T09:45:37.529Z,66.30
2018-08-18T09:48:06.561Z,66.80
2018-08-18T09:50:34.774Z,61.90
2018-08-18T09:53:02.923Z,59.70
2018-08-18T09:55:31.197Z,61.60
2018-08-18T09:57:59.366Z,59.80
2018-08-18T10:00:33.139Z,55.90
2018-08-18T10:03:01.299Z,58.70
2018-08-18T10:05:29.684Z,62.30
2018-08-18T10:07:57.914Z,61.10
2018-08-18T10:10:26.166Z,63.70
2018-08-18T10:12:54.315Z,62.40
2018-08-18T10:15:22.594Z,66.10
2018-08-18T10:17:50.750Z,67.40
2018-08-18T10:20:18.951Z,68.30
2018-08-18T10:22:47.217Z,70.60
2018-08-18T10:25:15.463Z,68.80
2018-08-18T10:27:43.714Z,68.40
2018-08-18T10:30:11.926Z,64.40
2018-08-18T10:32:45.223Z,58.40
2018-08-18T10:35:17.825Z,55.40
2018-08-18T10:37:46.006Z,55.40
2018-08-18T10:40:14.179Z,58.60
2018-08-18T10:42:42.309Z,56.00
2018-08-18T10:45:10.551Z,51.70
2018-08-18T10:47:38.699Z,53.30
2018-08-18T10:50:18.044Z,57.20
2018-08-18T10:52:57.263Z,55.00
2018-08-18T10:55:25.450Z,57.70
2018-08-18T10:57:57.005Z,54.20
2018-08-18T11:00:27.000Z,50.90
2018-08-18T11:02:57.205Z,53.50
2018-08-18T11:05:26.307Z,54.70
2018-08-18T11:08:01.154Z,56.30
2018-08-18T11:10:31.014Z,56.20
2018-08-18T11:12:59.195Z,55.80
2018-08-18T11:15:27.906Z,57.30
2018-08-18T11:17:56.789Z,57.20
2018-08-18T11:20:27.018Z,56.90
2018-08-18T11:23:01.755Z,57.40
2018-08-18T11:25:32.895Z,56.50
2018-08-18T11:28:01.506Z,54.80
2018-08-18T11:30:30.393Z,54.00
2018-08-18T11:32:59.470Z,50.40
2018-08-18T11:35:28.082Z,49.20
2018-08-18T11:38:13.127Z,46.70
2018-08-18T11:40:41.306Z,44.20
2018-08-18T11:43:12.755Z,47.90
2018-08-18T11:48:22.922Z,51.20
2018-08-18T11:50:52.353Z,52.80
2018-08-18T11:53:20.612Z,53.80
2018-08-18T11:55:48.891Z,55.00
2018-08-18T11:58:21.924Z,56.60
2018-08-18T12:00:52.214Z,55.80
2018-08-18T12:03:22.765Z,54.20
2018-08-18T12:05:54.338Z,52.50
2018-08-18T12:08:23.894Z,48.30
2018-08-18T12:10:54.089Z,47.20
2018-08-18T12:13:27.486Z,45.80
2018-08-18T12:16:03.859Z,49.70
2018-08-18T12:18:32.911Z,50.60
2018-08-18T12:21:02.347Z,52.30
2018-08-18T12:23:31.241Z,48.50
2018-08-18T12:26:04.290Z,47.70
2018-08-18T12:28:43.040Z,45.20
2018-08-18T12:31:18.186Z,44.40
2018-08-18T12:33:46.457Z,43.30
2018-08-18T12:36:14.903Z,42.70
2018-08-18T12:38:51.387Z,43.90
2018-08-18T12:41:19.516Z,42.90
2018-08-18T12:43:50.338Z,42.80
2018-08-18T12:46:19.901Z,43.60
2018-08-18T12:48:54.924Z,47.50
2018-08-18T12:51:23.030Z,46.80
2018-08-18T12:53:53.291Z,45.00
2018-08-18T12:56:23.532Z,44.00
2018-08-18T12:58:51.674Z,43.50
2018-08-18T13:01:38.634Z,42.60
2018-08-18T13:04:09.958Z,41.70
2018-08-18T13:06:41.184Z,44.40
2018-08-18T13:09:10.845Z,43.40
2018-08-18T13:11:39.003Z,42.50
2018-08-18T13:14:09.778Z,43.40
2018-08-18T13:16:38.199Z,43.00
2018-08-18T13:19:06.644Z,40.20
2018-08-18T13:21:34.759Z,40.40
2018-08-18T13:24:03.392Z,39.90
2018-08-18T13:26:31.754Z,43.20
2018-08-18T13:28:59.890Z,45.10
2018-08-18T13:31:44.551Z,44.20
2018-08-18T13:34:15.152Z,43.40
2018-08-18T13:36:44.414Z,41.60
2018-08-18T13:39:14.072Z,42.10
2018-08-18T13:41:46.046Z,43.50
2018-08-18T13:44:25.857Z,44.60
2018-08-18T13:46:53.979Z,45.40
2018-08-18T13:49:23.872Z,43.90
2018-08-18T13:51:52.156Z,43.00
2018-08-18T13:54:20.384Z,42.40
2018-08-18T13:56:48.531Z,42.50
2018-08-18T13:59:35.138Z,42.30
2018-08-18T14:02:03.272Z,44.30
2018-08-18T14:04:31.464Z,45.90
2018-08-18T14:06:59.688Z,44.90
2018-08-18T14:09:27.791Z,43.40
2018-08-18T14:12:01.964Z,46.20
2018-08-18T14:14:30.199Z,44.90
2018-08-18T14:16:58.365Z,46.40
2018-08-18T14:19:26.555Z,48.10
2018-08-18T14:21:59.014Z,48.80
2018-08-18T14:24:32.668Z,47.50
2018-08-18T14:27:01.929Z,48.10
2018-08-18T14:29:31.856Z,46.80
2018-08-18T14:32:00.660Z,46.80
2018-08-18T14:34:28.844Z,48.00
2018-08-18T14:37:01.230Z,49.20
2018-08-18T14:39:37.038Z,49.30
2018-08-18T14:42:05.687Z,47.10
2018-08-18T14:44:33.760Z,47.70
2018-08-18T14:47:01.893Z,47.10
2018-08-18T14:49:30.033Z,47.50
2018-08-18T14:51:58.269Z,47.00
2018-08-18T14:54:29.167Z,48.00
2018-08-18T14:56:58.367Z,45.90
2018-08-18T14:59:31.168Z,47.00
2018-08-18T15:02:00.378Z,47.70
2018-08-18T15:04:28.559Z,48.20
2018-08-18T15:06:56.831Z,46.00
2018-08-18T15:09:38.756Z,47.00
2018-08-18T15:12:07.153Z,46.80
2018-08-18T15:14:35.425Z,47.40
2018-08-18T15:17:03.750Z,47.60
2018-08-18T15:19:31.924Z,46.70
2018-08-18T15:22:01.971Z,46.20
2018-08-18T15:24:30.127Z,46.70
2018-08-18T15:26:58.267Z,47.20
2018-08-18T15:29:26.409Z,46.10
2018-08-18T15:31:56.334Z,46.70
2018-08-18T15:34:24.802Z,46.40
2018-08-18T15:36:52.914Z,46.40
2018-08-18T15:39:33.347Z,46.60
2018-08-18T15:42:01.696Z,48.90
2018-08-18T15:44:29.873Z,48.30
2018-08-18T15:46:58.418Z,47.60
2018-08-18T15:49:26.610Z,47.60
2018-08-18T15:51:55.155Z,47.90
2018-08-18T15:54:23.480Z,47.40
2018-08-18T15:56:51.615Z,48.60
2018-08-18T15:59:19.748Z,50.00
2018-08-18T16:01:47.825Z,51.00
2018-08-18T16:04:15.975Z,50.70
2018-08-18T16:06:44.132Z,49.40
2018-08-18T16:09:12.365Z,49.00
2018-08-18T16:11:40.671Z,49.30
2018-08-18T16:14:08.886Z,51.30
2018-08-18T16:16:52.888Z,50.30
2018-08-18T16:19:21.048Z,50.70
2018-08-18T16:21:51.135Z,50.90
2018-08-18T16:24:40.552Z,51.20
2018-08-18T16:27:08.891Z,53.10
2018-08-18T16:29:37.599Z,53.30
2018-08-18T16:32:18.596Z,53.70
2018-08-18T16:34:47.982Z,54.70
2018-08-18T16:37:16.278Z,54.40
2018-08-18T16:39:44.942Z,54.00
2018-08-18T16:42:14.116Z,53.70
2018-08-18T16:44:42.547Z,52.70
2018-08-18T16:47:10.863Z,53.60
2018-08-18T16:49:38.931Z,53.70
2018-08-18T16:52:07.134Z,53.70
2018-08-18T16:54:35.355Z,54.40
2018-08-18T16:57:03.467Z,55.30
2018-08-18T16:59:35.380Z,55.20
2018-08-18T17:02:04.270Z,54.70
2018-08-18T17:04:33.545Z,55.40
2018-08-18T17:07:03.279Z,55.90
2018-08-18T17:09:39.090Z,55.40
2018-08-18T17:14:37.922Z,55.30
2018-08-18T17:17:06.158Z,55.80
2018-08-18T17:19:34.540Z,56.50
2018-08-18T17:22:02.775Z,56.30
2018-08-18T17:24:30.936Z,56.90
2018-08-18T17:26:59.121Z,56.70
2018-08-18T17:29:27.277Z,57.20
2018-08-18T17:31:55.478Z,57.40
2018-08-18T17:34:23.600Z,57.60
2018-08-18T17:36:51.682Z,57.70
2018-08-18T17:39:19.839Z,58.10
2018-08-18T17:41:47.959Z,58.50
2018-08-18T17:44:16.128Z,58.90
2018-08-18T17:46:48.560Z,59.50
2018-08-18T17:49:16.658Z,58.90
2018-08-18T17:51:57.381Z,60.20
2018-08-18T17:54:25.543Z,60.20
2018-08-18T17:56:53.780Z,59.80
2018-08-18T17:59:22.086Z,60.30
2018-08-18T18:01:58.636Z,61.60
2018-08-18T18:04:28.466Z,62.50
2018-08-18T18:06:57.696Z,62.40
2018-08-18T18:09:28.226Z,62.90
2018-08-18T18:11:56.638Z,64.50
2018-08-18T18:14:24.757Z,63.30
2018-08-18T18:16:53.197Z,63.40
2018-08-18T18:19:21.344Z,63.30
2018-08-18T18:21:49.498Z,63.80
2018-08-18T18:24:27.917Z,64.50
2018-08-18T18:26:56.097Z,64.00
2018-08-18T18:29:28.016Z,64.10
2018-08-18T18:31:56.568Z,65.00
2018-08-18T18:34:24.671Z,64.50
2018-08-18T18:36:52.735Z,64.70
2018-08-18T18:39:20.845Z,64.80
2018-08-18T18:41:49.018Z,66.20
2018-08-18T18:44:17.103Z,66.60
2018-08-18T18:46:45.244Z,66.80
2018-08-18T18:49:28.256Z,67.30
2018-08-18T18:51:56.498Z,68.20
2018-08-18T18:54:24.655Z,68.30
2018-08-18T18:56:52.861Z,69.10
2018-08-18T18:59:21.111Z,69.20
2018-08-18T19:01:49.379Z,70.30
2018-08-18T19:04:17.514Z,71.00
2018-08-18T19:06:57.221Z,70.90
2018-08-18T19:09:25.901Z,72.00
2018-08-18T19:11:54.146Z,72.20
2018-08-18T19:14:22.928Z,72.40
2018-08-18T19:16:51.535Z,72.10
2018-08-18T19:19:20.801Z,72.50
2018-08-18T19:21:48.941Z,72.50
2018-08-18T19:24:22.626Z,72.50
2018-08-18T19:27:00.185Z,73.00
2018-08-18T19:29:29.204Z,73.70
2018-08-18T19:31:59.440Z,72.70
2018-08-18T19:34:27.648Z,73.30
2018-08-18T19:36:59.496Z,73.30
2018-08-18T19:39:28.732Z,73.50
2018-08-18T19:42:18.609Z,74.20
2018-08-18T19:44:49.515Z,74.00
2018-08-18T19:47:21.907Z,74.40
2018-08-18T19:49:50.001Z,74.50
2018-08-18T19:52:21.848Z,74.70
2018-08-18T19:54:50.952Z,75.30
2018-08-18T19:57:25.602Z,75.50
2018-08-18T19:59:55.418Z,76.30
2018-08-18T20:02:23.541Z,76.90
2018-08-18T20:04:51.856Z,76.90
2018-08-18T20:07:20.069Z,77.40
2018-08-18T20:09:48.401Z,77.80
2018-08-18T20:12:16.909Z,78.30
2018-08-18T20:14:45.522Z,78.70
2018-08-18T20:17:13.686Z,79.20
2018-08-18T20:19:41.813Z,79.40
2018-08-18T20:22:14.528Z,79.60
2018-08-18T20:24:42.757Z,80.00
2018-08-18T20:27:10.985Z,79.80
2018-08-18T20:29:39.092Z,79.80
2018-08-18T20:32:07.328Z,80.20
2018-08-18T20:34:35.617Z,80.40
2018-08-18T20:37:03.745Z,81.70
2018-08-18T20:39:31.925Z,81.10
2018-08-18T20:42:00.093Z,81.10
2018-08-18T20:44:28.559Z,81.40
2018-08-18T20:46:56.802Z,81.90
2018-08-18T20:49:24.905Z,82.10
2018-08-18T20:51:53.076Z,82.40
2018-08-18T20:54:21.881Z,83.30
2018-08-18T20:56:49.963Z,83.30
2018-08-18T20:59:18.138Z,83.00
2018-08-18T21:01:46.325Z,83.30
2018-08-18T21:04:14.444Z,83.70
2018-08-18T21:06:42.779Z,83.70
2018-08-18T21:09:24.147Z,84.00
2018-08-18T21:11:52.570Z,84.20
2018-08-18T21:14:20.860Z,84.20
2018-08-18T21:16:49.027Z,84.10
2018-08-18T21:19:21.391Z,84.40
2018-08-18T21:24:24.179Z,84.60
2018-08-18T21:26:52.336Z,84.90
2018-08-18T21:29:23.393Z,85.20
2018-08-18T21:31:51.720Z,85.70
2018-08-18T21:34:19.910Z,85.70
2018-08-18T21:36:48.159Z,86.10
2018-08-18T21:39:16.344Z,86.10
2018-08-18T21:41:45.951Z,86.50
2018-08-18T21:44:14.846Z,87.10
2018-08-18T21:46:43.343Z,87.50
2018-08-18T21:49:12.447Z,87.30
2018-08-18T21:51:40.602Z,87.60
2018-08-18T21:54:08.784Z,88.10
2018-08-18T21:56:42.271Z,88.10
2018-08-18T21:59:11.688Z,88.20
2018-08-18T22:01:39.922Z,87.80
2018-08-18T22:04:08.715Z,87.80
2018-08-18T22:06:36.861Z,87.90
2018-08-18T22:09:21.972Z,88.00
2018-08-18T22:11:50.522Z,88.40
2018-08-18T22:14:19.036Z,88.90
2018-08-18T22:16:54.644Z,90.40
2018-08-18T22:19:22.942Z,90.40
2018-08-18T22:21:51.149Z,90.70
2018-08-18T22:24:19.277Z,91.00
2018-08-18T22:26:47.399Z,91.10
2018-08-18T22:29:15.601Z,91.10
2018-08-18T22:31:43.656Z,91.00
2018-08-18T22:34:11.840Z,90.80
2018-08-18T22:36:39.921Z,90.80
2018-08-18T22:39:09.506Z,90.90
2018-08-18T22:41:38.569Z,91.30
2018-08-18T22:44:06.660Z,91.50
2018-08-18T22:46:34.736Z,91.50
2018-08-18T22:49:02.807Z,91.40
2018-08-18T22:51:30.876Z,91.70
2018-08-18T22:53:59.001Z,91.90
2018-08-18T22:56:32.724Z,91.80
2018-08-18T22:59:04.937Z,91.90
2018-08-18T23:01:34.176Z,92.00
2018-08-18T23:04:03.105Z,92.00
2018-08-18T23:06:32.925Z,92.10
2018-08-18T23:09:01.008Z,92.20
2018-08-18T23:11:29.125Z,92.30
2018-08-18T23:13:57.159Z,91.80
2018-08-18T23:16:25.211Z,92.30
2018-08-18T23:18:53.687Z,92.40
2018-08-18T23:21:26.061Z,92.30
2018-08-18T23:23:54.175Z,92.10
2018-08-18T23:26:22.270Z,91.80
2018-08-18T23:28:50.303Z,91.90
2018-08-18T23:31:18.390Z,92.00
2018-08-18T23:33:46.532Z,92.10
2018-08-18T23:36:14.623Z,92.20
2018-08-18T23:38:46.952Z,92.40
2018-08-18T23:41:15.008Z,92.50
2018-08-18T23:43:43.060Z,92.70
2018-08-18T23:46:11.140Z,92.90
2018-08-18T23:48:39.329Z,93.60
2018-08-18T23:51:07.427Z,93.20
2018-08-18T23:53:35.492Z,93.40
2018-08-18T23:56:03.538Z,93.60
2018-08-18T23:58:31.616Z,93.70
